createdAt,value
2019-06-27T00:00:16.910Z,72.44
2019-06-27T00:01:16.917Z,72.58
2019-06-27T00:02:16.892Z,72.54
2019-06-27T00:03:16.871Z,72.64
2019-06-27T00:04:16.862Z,72.54
2019-06-27T00:05:16.850Z,72.34
2019-06-27T00:06:16.838Z,72.54
2019-06-27T00:07:16.843Z,72.34
2019-06-27T00:08:16.827Z,72.24
2019-06-27T00:09:16.805Z,72.54
2019-06-27T00:10:16.795Z,72.64
2019-06-27T00:11:16.782Z,71.84
2019-06-27T00:12:16.771Z,72.54
2019-06-27T00:13:16.790Z,71.94
2019-06-27T00:14:16.750Z,71.94
2019-06-27T00:15:16.738Z,72.54
2019-06-27T00:16:16.731Z,72.14
2019-06-27T00:17:16.718Z,71.73
2019-06-27T00:18:16.705Z,72.14
2019-06-27T00:19:16.719Z,71.57
2019-06-27T00:20:16.687Z,72.38
2019-06-27T00:21:16.673Z,72.17
2019-06-27T00:22:16.660Z,72.07
2019-06-27T00:23:16.649Z,71.87
2019-06-27T00:24:16.653Z,72.67
2019-06-27T00:25:16.672Z,72.38
2019-06-27T00:26:16.622Z,72.67
2019-06-27T00:27:16.609Z,72.27
2019-06-27T00:28:16.596Z,72.88
2019-06-27T00:29:16.585Z,72.07
2019-06-27T00:30:16.595Z,72.07
2019-06-27T00:31:16.585Z,72.88
2019-06-27T00:32:16.552Z,72.61
2019-06-27T00:33:16.541Z,73.11
2019-06-27T00:34:16.528Z,72.81
2019-06-27T00:35:16.520Z,72.91
2019-06-27T00:36:16.505Z,72.61
2019-06-27T00:37:16.586Z,72.71
2019-06-27T00:38:16.488Z,72.71
2019-06-27T00:39:16.473Z,72.27
2019-06-27T00:40:16.465Z,72.41
2019-06-27T00:41:16.450Z,72.61
2019-06-27T00:42:16.451Z,72.91
2019-06-27T00:43:16.446Z,72.81
2019-06-27T00:44:16.447Z,72.81
2019-06-27T00:45:16.406Z,72.61
2019-06-27T00:46:16.395Z,73.01
2019-06-27T00:47:16.383Z,73.22
2019-06-27T00:48:16.388Z,72.91
2019-06-27T00:49:16.373Z,72.91
2019-06-27T00:50:16.350Z,73.01
2019-06-27T00:51:16.340Z,73.01
2019-06-27T00:52:16.328Z,72.41
2019-06-27T00:53:16.319Z,72.61
2019-06-27T00:54:16.324Z,72.34
2019-06-27T00:55:16.303Z,72.75
2019-06-27T00:56:16.285Z,72.54
2019-06-27T00:57:16.272Z,73.05
2019-06-27T00:58:16.261Z,72.64
2019-06-27T00:59:16.251Z,72.95
2019-06-27T01:00:16.291Z,72.64
2019-06-27T01:01:16.244Z,72.54
2019-06-27T01:02:16.217Z,73.05
2019-06-27T01:03:16.207Z,73.45
2019-06-27T01:04:16.195Z,73.05
2019-06-27T01:05:16.202Z,72.61
2019-06-27T01:06:16.172Z,72.34
2019-06-27T01:07:16.190Z,72.95
2019-06-27T01:08:16.151Z,72.51
2019-06-27T01:09:16.140Z,73.01
2019-06-27T01:10:16.129Z,72.91
2019-06-27T01:11:16.132Z,72.71
2019-06-27T01:12:16.107Z,72.44
2019-06-27T01:13:16.103Z,72.81
2019-06-27T01:14:16.085Z,72.64
2019-06-27T01:15:16.077Z,73.11
2019-06-27T01:16:16.077Z,72.41
2019-06-27T01:17:16.052Z,72.54
2019-06-27T01:18:16.040Z,73.01
2019-06-27T01:19:16.046Z,72.44
2019-06-27T01:20:16.039Z,73.05
2019-06-27T01:21:16.007Z,73.11
2019-06-27T01:22:16.008Z,73.42
2019-06-27T01:23:15.991Z,72.61
2019-06-27T01:24:15.974Z,72.64
2019-06-27T01:25:15.975Z,73.25
2019-06-27T01:26:15.962Z,73.05
2019-06-27T01:27:29.073Z,71.94
2019-06-27T01:28:16.928Z,73.05
2019-06-27T01:29:15.918Z,72.54
2019-06-27T01:30:15.932Z,72.95
2019-06-27T01:31:15.897Z,73.05
2019-06-27T01:32:15.902Z,72.98
2019-06-27T01:33:15.876Z,72.78
2019-06-27T01:34:15.866Z,72.78
2019-06-27T01:35:15.853Z,72.78
2019-06-27T01:36:15.856Z,73.49
2019-06-27T01:37:15.829Z,72.78
2019-06-27T01:38:15.858Z,72.98
2019-06-27T01:39:15.809Z,72.58
2019-06-27T01:40:15.797Z,72.88
2019-06-27T01:41:15.802Z,72.68
2019-06-27T01:42:15.774Z,72.85
2019-06-27T01:43:15.779Z,72.64
2019-06-27T01:44:15.778Z,73.05
2019-06-27T01:45:15.742Z,72.58
2019-06-27T01:46:15.730Z,72.38
2019-06-27T01:47:15.721Z,73.28
2019-06-27T01:48:15.709Z,72.88
2019-06-27T01:49:15.708Z,73.49
2019-06-27T01:50:15.701Z,73.08
2019-06-27T01:51:15.683Z,72.61
2019-06-27T01:52:15.666Z,73.42
2019-06-27T01:53:15.655Z,73.52
2019-06-27T01:54:15.656Z,73.52
2019-06-27T01:55:15.675Z,73.69
2019-06-27T01:56:15.635Z,73.72
2019-06-27T01:57:15.608Z,72.71
2019-06-27T01:58:15.598Z,72.71
2019-06-27T01:59:15.590Z,72.71
2019-06-27T02:00:15.578Z,72.41
2019-06-27T02:01:15.575Z,72.81
2019-06-27T02:02:15.568Z,72.55
2019-06-27T02:03:15.555Z,73.25
2019-06-27T02:04:15.535Z,73.75
2019-06-27T02:05:15.548Z,72.55
2019-06-27T02:06:15.575Z,73.32
2019-06-27T02:07:15.500Z,73.32
2019-06-27T02:08:15.507Z,73.55
2019-06-27T02:09:15.476Z,72.75
2019-06-27T02:10:15.467Z,72.51
2019-06-27T02:11:15.453Z,72.51
2019-06-27T02:12:15.453Z,73.22
2019-06-27T02:13:15.441Z,72.51
2019-06-27T02:14:15.435Z,73.15
2019-06-27T02:15:15.408Z,72.71
2019-06-27T02:16:15.399Z,73.05
2019-06-27T02:17:15.390Z,72.95
2019-06-27T02:18:15.401Z,73.22
2019-06-27T02:19:15.363Z,73.15
2019-06-27T02:20:15.365Z,72.85
2019-06-27T02:21:15.342Z,72.64
2019-06-27T02:22:15.344Z,72.75
2019-06-27T02:23:16.106Z,73.15
2019-06-27T02:24:15.330Z,73.15
2019-06-27T02:25:15.300Z,73.15
2019-06-27T02:26:15.327Z,73.11
2019-06-27T02:27:15.276Z,73.05
2019-06-27T02:28:15.267Z,72.95
2019-06-27T02:29:15.255Z,72.71
2019-06-27T02:30:15.258Z,73.42
2019-06-27T02:31:15.244Z,72.71
2019-06-27T02:32:15.241Z,72.41
2019-06-27T02:33:15.221Z,71.80
2019-06-27T02:34:15.200Z,72.21
2019-06-27T02:35:15.191Z,72.71
2019-06-27T02:36:15.198Z,72.55
2019-06-27T02:37:15.168Z,71.70
2019-06-27T02:38:15.176Z,72.44
2019-06-27T02:39:15.154Z,72.24
2019-06-27T02:40:15.138Z,72.75
2019-06-27T02:41:15.124Z,72.55
2019-06-27T02:42:15.125Z,72.85
2019-06-27T02:43:15.103Z,72.04
2019-06-27T02:44:15.105Z,72.34
2019-06-27T02:45:15.081Z,72.14
2019-06-27T02:46:15.071Z,72.44
2019-06-27T02:47:15.071Z,72.14
2019-06-27T02:48:15.045Z,72.64
2019-06-27T02:49:15.036Z,72.85
2019-06-27T02:50:15.043Z,72.34
2019-06-27T02:51:15.016Z,71.64
2019-06-27T02:52:15.001Z,72.14
2019-06-27T02:53:14.991Z,72.08
2019-06-27T02:54:14.993Z,71.77
2019-06-27T02:55:14.967Z,72.48
2019-06-27T02:56:14.978Z,72.88
2019-06-27T02:57:14.947Z,72.75
2019-06-27T02:58:30.215Z,72.17
2019-06-27T02:59:15.922Z,71.94
2019-06-27T03:00:14.924Z,71.67
2019-06-27T03:01:14.940Z,71.97
2019-06-27T03:02:14.907Z,71.17
2019-06-27T03:03:14.885Z,72.58
2019-06-27T03:04:14.868Z,72.48
2019-06-27T03:05:14.863Z,72.38
2019-06-27T03:06:14.850Z,71.77
2019-06-27T03:07:14.856Z,72.58
2019-06-27T03:08:14.847Z,72.08
2019-06-27T03:09:14.815Z,72.58
2019-06-27T03:10:14.809Z,72.28
2019-06-27T03:11:14.792Z,72.28
2019-06-27T03:12:14.784Z,72.28
2019-06-27T03:13:14.784Z,72.28
2019-06-27T03:14:14.785Z,72.78
2019-06-27T03:15:14.758Z,72.68
2019-06-27T03:16:14.742Z,72.28
2019-06-27T03:17:14.730Z,73.02
2019-06-27T03:18:14.727Z,72.17
2019-06-27T03:19:14.727Z,72.31
2019-06-27T03:20:14.708Z,72.51
2019-06-27T03:21:14.706Z,72.31
2019-06-27T03:22:14.684Z,72.01
2019-06-27T03:23:14.663Z,72.81
2019-06-27T03:24:14.676Z,72.92
2019-06-27T03:25:14.654Z,72.72
2019-06-27T03:26:14.664Z,72.72
2019-06-27T03:27:14.619Z,73.22
2019-06-27T03:28:14.612Z,72.51
2019-06-27T03:29:14.594Z,72.51
2019-06-27T03:30:14.605Z,72.41
2019-06-27T03:31:14.625Z,71.70
2019-06-27T03:32:14.586Z,72.31
2019-06-27T03:33:14.567Z,72.51
2019-06-27T03:34:14.542Z,72.55
2019-06-27T03:35:14.538Z,73.22
2019-06-27T03:36:14.532Z,73.15
2019-06-27T03:37:14.515Z,73.12
2019-06-27T03:38:14.515Z,72.81
2019-06-27T03:39:14.486Z,73.25
2019-06-27T03:40:14.486Z,72.92
2019-06-27T03:41:14.462Z,72.92
2019-06-27T03:42:14.464Z,73.02
2019-06-27T03:43:14.451Z,72.81
2019-06-27T03:44:14.450Z,73.32
2019-06-27T03:45:16.035Z,72.31
2019-06-27T03:46:14.407Z,72.72
2019-06-27T03:47:14.410Z,73.12
2019-06-27T03:48:14.386Z,72.61
2019-06-27T03:49:14.390Z,73.12
2019-06-27T03:50:14.372Z,72.81
2019-06-27T03:51:14.357Z,72.81
2019-06-27T03:52:14.342Z,73.32
2019-06-27T03:53:14.340Z,72.51
2019-06-27T03:54:14.593Z,72.61
2019-06-27T03:55:14.324Z,72.61
2019-06-27T03:56:14.298Z,72.72
2019-06-27T03:57:14.286Z,72.41
2019-06-27T03:58:14.291Z,72.72
2019-06-27T03:59:14.340Z,72.92
2019-06-27T04:00:14.269Z,72.65
2019-06-27T04:01:14.270Z,72.81
2019-06-27T04:02:14.230Z,73.63
2019-06-27T04:03:14.221Z,73.43
2019-06-27T04:04:14.209Z,73.12
2019-06-27T04:05:14.225Z,72.72
2019-06-27T04:06:14.205Z,72.72
2019-06-27T04:07:14.181Z,73.63
2019-06-27T04:08:14.169Z,73.72
2019-06-27T04:09:14.158Z,72.81
2019-06-27T04:10:17.223Z,73.63
2019-06-27T04:11:14.154Z,73.83
2019-06-27T04:12:14.149Z,73.63
2019-06-27T04:13:14.158Z,72.92
2019-06-27T04:14:14.103Z,72.72
2019-06-27T04:15:14.097Z,72.41
2019-06-27T04:16:14.091Z,72.72
2019-06-27T04:17:14.074Z,72.08
2019-06-27T04:18:14.055Z,72.08
2019-06-27T04:19:14.080Z,72.38
2019-06-27T04:20:14.035Z,72.68
2019-06-27T04:21:14.026Z,72.99
2019-06-27T04:22:17.320Z,72.17
2019-06-27T04:23:14.000Z,71.57
2019-06-27T04:24:14.014Z,72.11
2019-06-27T04:25:14.013Z,72.11
2019-06-27T04:26:13.972Z,72.01
2019-06-27T04:27:13.961Z,71.57
2019-06-27T04:28:13.961Z,72.11
2019-06-27T04:29:31.917Z,71.60
2019-06-27T04:30:14.943Z,72.01
2019-06-27T04:31:13.930Z,71.67
2019-06-27T04:32:13.901Z,70.59
2019-06-27T04:33:13.893Z,70.79
2019-06-27T04:34:19.248Z,72.21
2019-06-27T04:35:14.869Z,71.80
2019-06-27T04:36:13.881Z,70.79
2019-06-27T04:37:13.861Z,71.00
2019-06-27T04:38:13.836Z,72.01
2019-06-27T04:39:13.828Z,71.00
2019-06-27T04:40:13.812Z,70.93
2019-06-27T04:41:13.805Z,70.93
2019-06-27T04:42:13.801Z,72.65
2019-06-27T04:43:13.820Z,72.44
2019-06-27T04:44:13.779Z,72.01
2019-06-27T04:45:13.760Z,72.51
2019-06-27T04:46:13.748Z,72.21
2019-06-27T04:47:13.758Z,70.69
2019-06-27T04:48:13.725Z,70.93
2019-06-27T04:49:14.117Z,71.60
2019-06-27T04:50:13.706Z,71.70
2019-06-27T04:51:13.691Z,71.91
2019-06-27T04:52:13.681Z,69.92
2019-06-27T04:53:13.681Z,70.39
2019-06-27T04:54:13.660Z,70.09
2019-06-27T04:55:13.659Z,70.42
2019-06-27T04:56:13.638Z,71.73
2019-06-27T04:57:13.639Z,71.84
2019-06-27T04:58:13.629Z,70.22
2019-06-27T04:59:13.608Z,70.62
2019-06-27T05:00:13.610Z,70.22
2019-06-27T05:01:13.611Z,70.83
2019-06-27T05:02:13.589Z,69.92
2019-06-27T05:03:13.563Z,70.02
2019-06-27T05:04:13.574Z,70.52
2019-06-27T05:05:14.060Z,70.62
2019-06-27T05:06:13.529Z,70.29
2019-06-27T05:07:13.523Z,69.48
2019-06-27T05:08:14.759Z,69.41
2019-06-27T05:09:13.495Z,69.58
2019-06-27T05:10:13.507Z,69.48
2019-06-27T05:11:13.489Z,68.70
2019-06-27T05:12:13.462Z,69.18
2019-06-27T05:13:13.450Z,69.27
2019-06-27T05:14:13.437Z,69.58
2019-06-27T05:15:13.435Z,68.37
2019-06-27T05:16:13.456Z,68.67
2019-06-27T05:17:13.411Z,68.67
2019-06-27T05:18:13.395Z,69.41
2019-06-27T05:19:13.384Z,69.18
2019-06-27T05:20:13.375Z,68.16
2019-06-27T05:21:13.385Z,68.26
2019-06-27T05:22:13.368Z,68.70
2019-06-27T05:23:13.342Z,67.89
2019-06-27T05:24:13.331Z,68.30
2019-06-27T05:25:13.319Z,68.19
2019-06-27T05:26:13.306Z,67.79
2019-06-27T05:27:13.316Z,68.60
2019-06-27T05:28:13.313Z,68.73
2019-06-27T05:29:13.273Z,68.90
2019-06-27T05:30:13.262Z,68.80
2019-06-27T05:31:13.252Z,68.19
2019-06-27T05:32:13.240Z,67.79
2019-06-27T05:33:13.244Z,68.02
2019-06-27T05:34:13.252Z,68.33
2019-06-27T05:35:13.208Z,68.33
2019-06-27T05:36:13.196Z,68.23
2019-06-27T05:37:13.187Z,68.73
2019-06-27T05:38:13.185Z,68.02
2019-06-27T05:39:13.174Z,68.53
2019-06-27T05:40:13.174Z,68.43
2019-06-27T05:41:13.156Z,68.43
2019-06-27T05:42:13.143Z,68.23
2019-06-27T05:43:13.140Z,69.04
2019-06-27T05:44:13.112Z,68.26
2019-06-27T05:45:13.117Z,68.43
2019-06-27T05:46:13.088Z,68.60
2019-06-27T05:47:13.077Z,68.19
2019-06-27T05:48:13.104Z,67.55
2019-06-27T05:49:13.073Z,66.52
2019-06-27T05:50:13.144Z,66.78
2019-06-27T05:51:13.047Z,65.37
2019-06-27T05:52:13.033Z,65.17
2019-06-27T05:53:13.015Z,64.97
2019-06-27T05:54:13.013Z,64.97
2019-06-27T05:55:13.013Z,64.87
2019-06-27T05:56:12.980Z,64.84
2019-06-27T05:57:12.988Z,64.94
2019-06-27T05:58:12.955Z,64.30
2019-06-27T05:59:12.943Z,64.37
2019-06-27T06:00:27.664Z,62.76
2019-06-27T06:01:13.941Z,63.13
2019-06-27T06:02:12.915Z,61.92
2019-06-27T06:03:12.906Z,61.99
2019-06-27T06:04:12.889Z,61.25
2019-06-27T06:05:12.879Z,61.05
2019-06-27T06:06:12.899Z,60.52
2019-06-27T06:07:12.882Z,60.72
2019-06-27T06:08:12.845Z,60.09
2019-06-27T06:09:12.849Z,59.82
2019-06-27T06:10:12.828Z,60.39
2019-06-27T06:11:12.816Z,60.09
2019-06-27T06:12:12.813Z,61.25
2019-06-27T06:13:12.805Z,61.25
2019-06-27T06:14:12.803Z,61.76
2019-06-27T06:15:12.768Z,61.79
2019-06-27T06:16:12.761Z,61.49
2019-06-27T06:17:12.772Z,62.70
2019-06-27T06:18:12.760Z,62.40
2019-06-27T06:19:12.753Z,62.63
2019-06-27T06:20:12.719Z,62.63
2019-06-27T06:21:12.701Z,63.26
2019-06-27T06:22:12.689Z,63.96
2019-06-27T06:23:12.692Z,63.93
2019-06-27T06:24:12.712Z,62.60
2019-06-27T06:25:12.671Z,61.56
2019-06-27T06:26:12.665Z,61.46
2019-06-27T06:27:12.635Z,61.86
2019-06-27T06:28:12.627Z,61.46
2019-06-27T06:29:12.629Z,61.08
2019-06-27T06:30:12.602Z,62.22
2019-06-27T06:31:12.616Z,62.15
2019-06-27T06:32:12.586Z,62.76
2019-06-27T06:33:12.573Z,63.76
2019-06-27T06:34:12.561Z,62.85
2019-06-27T06:35:12.699Z,62.85
2019-06-27T06:36:12.545Z,62.85
2019-06-27T06:37:12.540Z,62.85
2019-06-27T06:38:12.544Z,64.17
2019-06-27T06:39:12.513Z,62.76
2019-06-27T06:40:12.510Z,62.73
2019-06-27T06:41:12.521Z,62.12
2019-06-27T06:42:12.581Z,61.89
2019-06-27T06:43:12.530Z,62.77
2019-06-27T06:44:12.453Z,62.44
2019-06-27T06:45:12.453Z,61.00
2019-06-27T06:46:12.462Z,60.39
2019-06-27T06:47:12.454Z,59.36
2019-06-27T06:48:12.410Z,59.86
2019-06-27T06:49:12.415Z,59.66
2019-06-27T06:50:12.433Z,60.16
2019-06-27T06:51:12.375Z,58.93
2019-06-27T06:52:12.385Z,57.35
2019-06-27T06:53:12.368Z,59.26
2019-06-27T06:54:12.359Z,59.46
2019-06-27T06:55:12.337Z,59.76
2019-06-27T06:56:12.347Z,59.66
2019-06-27T06:57:12.316Z,58.53
2019-06-27T06:58:12.360Z,59.43
2019-06-27T06:59:12.297Z,58.95
2019-06-27T07:00:12.275Z,58.55
2019-06-27T07:01:12.268Z,58.18
2019-06-27T07:02:12.249Z,58.78
2019-06-27T07:03:12.242Z,58.68
2019-06-27T07:04:12.282Z,59.19
2019-06-27T07:05:12.239Z,58.68
2019-06-27T07:06:12.207Z,58.38
2019-06-27T07:07:13.317Z,59.39
2019-06-27T07:08:12.183Z,59.19
2019-06-27T07:09:12.176Z,59.99
2019-06-27T07:10:12.189Z,59.86
2019-06-27T07:11:12.163Z,60.13
2019-06-27T07:12:12.140Z,59.74
2019-06-27T07:13:12.132Z,57.92
2019-06-27T07:14:12.120Z,58.42
2019-06-27T07:15:12.120Z,58.83
2019-06-27T07:16:12.132Z,59.94
2019-06-27T07:17:12.085Z,59.50
2019-06-27T07:18:12.084Z,57.12
2019-06-27T07:19:12.062Z,57.12
2019-06-27T07:20:12.056Z,57.02
2019-06-27T07:21:12.042Z,57.72
2019-06-27T07:22:12.063Z,58.62
2019-06-27T07:23:12.058Z,58.12
2019-06-27T07:24:12.011Z,58.02
2019-06-27T07:25:11.996Z,58.33
2019-06-27T07:26:11.985Z,57.82
2019-06-27T07:27:11.992Z,57.62
2019-06-27T07:28:11.964Z,58.09
2019-06-27T07:29:11.961Z,57.29
2019-06-27T07:30:11.947Z,58.40
2019-06-27T07:31:17.713Z,58.60
2019-06-27T07:32:12.934Z,58.60
2019-06-27T07:33:11.918Z,58.80
2019-06-27T07:34:11.900Z,57.50
2019-06-27T07:35:11.894Z,57.09
2019-06-27T07:36:11.890Z,57.90
2019-06-27T07:37:11.865Z,59.41
2019-06-27T07:38:11.864Z,60.11
2019-06-27T07:39:11.858Z,58.00
2019-06-27T07:40:11.833Z,58.29
2019-06-27T07:41:11.829Z,57.26
2019-06-27T07:42:11.852Z,57.09
2019-06-27T07:43:11.800Z,57.90
2019-06-27T07:44:11.869Z,57.70
2019-06-27T07:45:21.667Z,57.09
2019-06-27T07:46:24.562Z,57.19
2019-06-27T07:47:12.754Z,57.70
2019-06-27T07:48:11.756Z,56.79
2019-06-27T07:49:11.734Z,59.30
2019-06-27T07:50:11.787Z,58.50
2019-06-27T07:51:11.738Z,58.97
2019-06-27T07:52:11.697Z,58.37
2019-06-27T07:53:11.686Z,57.84
2019-06-27T07:54:11.682Z,56.54
2019-06-27T07:55:11.703Z,56.54
2019-06-27T07:56:11.717Z,56.84
2019-06-27T07:57:11.644Z,56.23
2019-06-27T07:58:11.633Z,56.74
2019-06-27T07:59:11.624Z,55.13
2019-06-27T08:00:11.616Z,57.64
2019-06-27T08:01:11.608Z,57.51
2019-06-27T08:02:11.614Z,57.31
2019-06-27T08:03:11.581Z,56.51
2019-06-27T08:04:11.612Z,56.10
2019-06-27T08:05:11.601Z,56.30
2019-06-27T08:06:11.549Z,56.38
2019-06-27T08:07:11.558Z,56.81
2019-06-27T08:08:11.536Z,56.51
2019-06-27T08:09:11.514Z,56.10
2019-06-27T08:10:11.503Z,56.61
2019-06-27T08:11:11.498Z,55.10
2019-06-27T08:12:11.507Z,54.88
2019-06-27T08:13:11.482Z,55.08
2019-06-27T08:14:11.484Z,56.58
2019-06-27T08:15:11.449Z,58.39
2019-06-27T08:16:11.436Z,58.56
2019-06-27T08:17:11.452Z,57.13
2019-06-27T08:18:11.445Z,57.10
2019-06-27T08:19:11.404Z,55.50
2019-06-27T08:20:11.398Z,53.97
2019-06-27T08:21:11.380Z,54.57
2019-06-27T08:22:11.367Z,53.64
2019-06-27T08:23:11.389Z,52.82
2019-06-27T08:24:11.375Z,52.62
2019-06-27T08:25:11.341Z,51.32
2019-06-27T08:26:11.342Z,50.82
2019-06-27T08:27:11.321Z,52.62
2019-06-27T08:28:11.308Z,53.32
2019-06-27T08:29:11.330Z,51.52
2019-06-27T08:30:11.283Z,52.09
2019-06-27T08:31:11.273Z,50.92
2019-06-27T08:32:11.325Z,53.22
2019-06-27T08:33:11.283Z,52.62
2019-06-27T08:34:11.250Z,50.92
2019-06-27T08:35:11.239Z,53.02
2019-06-27T08:36:11.239Z,53.19
2019-06-27T08:37:11.208Z,51.39
2019-06-27T08:38:11.229Z,51.39
2019-06-27T08:39:11.215Z,51.39
2019-06-27T08:40:11.201Z,50.89
2019-06-27T08:41:13.996Z,51.20
2019-06-27T08:42:11.156Z,51.87
2019-06-27T08:43:11.141Z,51.17
2019-06-27T08:44:11.129Z,52.04
2019-06-27T08:45:11.180Z,51.15
2019-06-27T08:46:11.140Z,51.45
2019-06-27T08:47:11.095Z,49.95
2019-06-27T08:48:11.091Z,50.84
2019-06-27T08:49:11.076Z,49.44
2019-06-27T08:50:11.067Z,49.27
2019-06-27T08:51:11.102Z,49.67
2019-06-27T08:52:11.043Z,49.87
2019-06-27T08:53:11.037Z,49.65
2019-06-27T08:54:11.020Z,51.15
2019-06-27T08:55:11.010Z,49.85
2019-06-27T08:56:10.998Z,49.74
2019-06-27T08:57:11.060Z,50.95
2019-06-27T08:58:10.979Z,49.77
2019-06-27T08:59:10.970Z,51.64
2019-06-27T09:00:10.957Z,51.92
2019-06-27T09:01:10.957Z,50.70
2019-06-27T09:02:10.936Z,49.50
2019-06-27T09:03:10.945Z,49.80
2019-06-27T09:04:10.937Z,50.30
2019-06-27T09:05:10.901Z,49.80
2019-06-27T09:06:10.895Z,48.00
2019-06-27T09:07:10.903Z,50.79
2019-06-27T09:08:10.878Z,49.48
2019-06-27T09:09:10.945Z,47.78
2019-06-27T09:10:10.887Z,48.28
2019-06-27T09:11:10.861Z,47.98
2019-06-27T09:12:10.828Z,49.10
2019-06-27T09:13:10.820Z,46.53
2019-06-27T09:14:10.811Z,48.02
2019-06-27T09:15:10.912Z,48.22
2019-06-27T09:16:10.821Z,49.32
2019-06-27T09:17:10.786Z,49.42
2019-06-27T09:18:10.777Z,48.32
2019-06-27T09:19:10.763Z,49.20
2019-06-27T09:20:10.783Z,50.49
2019-06-27T09:21:10.739Z,47.50
2019-06-27T09:22:10.732Z,49.20
2019-06-27T09:23:10.789Z,50.47
2019-06-27T09:24:10.727Z,48.78
2019-06-27T09:25:10.742Z,49.05
2019-06-27T09:26:10.721Z,47.96
2019-06-27T09:27:10.665Z,47.96
2019-06-27T09:28:10.672Z,49.55
2019-06-27T09:29:10.657Z,49.35
2019-06-27T09:30:10.664Z,50.13
2019-06-27T09:31:10.679Z,47.63
2019-06-27T09:32:24.212Z,49.21
2019-06-27T09:33:11.631Z,49.70
2019-06-27T09:34:10.593Z,47.33
2019-06-27T09:35:10.628Z,48.03
2019-06-27T09:36:10.624Z,47.14
2019-06-27T09:37:10.588Z,48.95
2019-06-27T09:38:10.667Z,50.65
2019-06-27T09:39:10.550Z,49.25
2019-06-27T09:40:10.525Z,49.23
2019-06-27T09:41:10.668Z,49.75
2019-06-27T09:42:10.508Z,47.88
2019-06-27T09:43:10.516Z,47.26
2019-06-27T09:44:10.504Z,47.38
2019-06-27T09:45:10.472Z,47.88
2019-06-27T09:46:10.464Z,47.86
2019-06-27T09:47:10.444Z,49.45
2019-06-27T09:48:10.447Z,48.03
2019-06-27T09:49:10.458Z,47.24
2019-06-27T09:50:10.420Z,47.61
2019-06-27T09:51:10.413Z,47.41
2019-06-27T09:52:10.397Z,47.44
2019-06-27T09:53:10.408Z,47.93
2019-06-27T09:54:10.413Z,50.52
2019-06-27T09:55:10.400Z,47.83
2019-06-27T09:56:10.342Z,48.03
2019-06-27T09:57:10.393Z,47.83
2019-06-27T09:58:10.331Z,51.20
2019-06-27T09:59:10.367Z,49.10
2019-06-27T10:00:10.333Z,48.98
2019-06-27T10:01:10.309Z,46.99
2019-06-27T10:02:10.319Z,46.67
2019-06-27T10:03:10.280Z,45.97
2019-06-27T10:04:10.277Z,45.87
2019-06-27T10:05:10.295Z,46.97
2019-06-27T10:06:10.246Z,46.08
2019-06-27T10:07:10.225Z,47.56
2019-06-27T10:08:10.231Z,46.09
2019-06-27T10:09:10.207Z,47.69
2019-06-27T10:10:10.189Z,48.19
2019-06-27T10:11:10.341Z,47.39
2019-06-27T10:12:10.338Z,47.49
2019-06-27T10:14:24.285Z,45.90
2019-06-27T10:15:23.930Z,46.72
2019-06-27T10:16:23.927Z,48.21
2019-06-27T10:17:23.936Z,50.78
2019-06-27T10:18:23.888Z,49.21
2019-06-27T10:19:23.881Z,48.19
2019-06-27T10:20:23.932Z,47.29
2019-06-27T10:21:23.857Z,49.28
2019-06-27T10:22:23.844Z,47.66
2019-06-27T10:23:23.832Z,47.56
2019-06-27T10:24:23.824Z,46.08
2019-06-27T10:25:23.845Z,47.54
2019-06-27T10:26:23.833Z,45.97
2019-06-27T10:27:23.794Z,47.14
2019-06-27T10:28:23.799Z,47.34
2019-06-27T10:29:23.767Z,47.22
2019-06-27T10:30:23.757Z,47.02
2019-06-27T10:31:23.784Z,45.90
2019-06-27T10:32:23.837Z,46.31
2019-06-27T10:33:23.738Z,46.13
2019-06-27T10:34:23.711Z,45.06
2019-06-27T10:35:23.703Z,44.66
2019-06-27T10:36:23.702Z,46.65
2019-06-27T10:37:23.697Z,45.78
2019-06-27T10:38:23.677Z,46.17
2019-06-27T10:39:23.666Z,47.77
2019-06-27T10:40:23.652Z,47.77
2019-06-27T10:41:23.649Z,49.13
2019-06-27T10:42:23.635Z,47.54
2019-06-27T10:43:23.620Z,46.13
2019-06-27T10:44:23.604Z,47.62
2019-06-27T10:45:23.622Z,46.33
2019-06-27T10:46:23.591Z,45.93
2019-06-27T10:47:23.571Z,47.92
2019-06-27T10:48:23.610Z,46.03
2019-06-27T10:49:23.549Z,48.02
2019-06-27T10:50:23.569Z,46.72
2019-06-27T10:51:23.549Z,48.74
2019-06-27T10:52:23.520Z,48.74
2019-06-27T10:53:23.504Z,48.64
2019-06-27T10:54:23.552Z,47.64
2019-06-27T10:55:23.485Z,46.35
2019-06-27T10:56:23.472Z,50.43
2019-06-27T10:57:23.476Z,47.34
2019-06-27T10:58:23.449Z,47.74
2019-06-27T10:59:23.444Z,45.75
2019-06-27T11:00:23.453Z,46.75
2019-06-27T11:01:23.420Z,49.61
2019-06-27T11:02:23.434Z,46.72
2019-06-27T11:03:23.400Z,47.22
2019-06-27T11:04:23.392Z,47.99
2019-06-27T11:05:23.406Z,47.70
2019-06-27T11:06:23.371Z,45.98
2019-06-27T11:07:23.377Z,45.81
2019-06-27T11:08:23.379Z,44.85
2019-06-27T11:09:23.334Z,48.16
2019-06-27T11:10:23.324Z,48.16
2019-06-27T11:11:23.324Z,50.25
2019-06-27T11:12:23.308Z,48.14
2019-06-27T11:13:23.287Z,47.54
2019-06-27T11:14:23.319Z,47.82
2019-06-27T11:15:23.268Z,46.11
2019-06-27T11:16:23.270Z,46.90
2019-06-27T11:17:23.287Z,46.03
2019-06-27T11:18:23.245Z,48.02
2019-06-27T11:19:23.230Z,48.02
2019-06-27T11:20:23.269Z,47.14
2019-06-27T11:21:23.199Z,47.54
2019-06-27T11:22:23.217Z,47.74
2019-06-27T11:23:23.245Z,47.94
2019-06-27T11:24:23.177Z,47.52
2019-06-27T11:25:23.158Z,46.84
2019-06-27T11:26:23.180Z,46.23
2019-06-27T11:27:26.340Z,47.99
2019-06-27T11:28:23.177Z,48.27
2019-06-27T11:29:23.155Z,46.95
2019-06-27T11:30:23.137Z,47.77
2019-06-27T11:31:23.107Z,48.27
2019-06-27T11:32:23.112Z,46.98
2019-06-27T11:33:32.635Z,47.77
2019-06-27T11:34:24.105Z,47.99
2019-06-27T11:35:23.050Z,47.38
2019-06-27T11:36:23.039Z,47.97
2019-06-27T11:37:23.054Z,47.45
2019-06-27T11:38:23.026Z,47.65
2019-06-27T11:39:23.503Z,48.05
2019-06-27T11:40:22.999Z,44.87
2019-06-27T11:41:23.014Z,45.86
2019-06-27T11:42:22.990Z,46.36
2019-06-27T11:43:23.005Z,46.06
2019-06-27T11:44:22.953Z,45.96
2019-06-27T11:45:22.969Z,45.96
2019-06-27T11:46:22.931Z,44.59
2019-06-27T11:47:22.919Z,44.40
2019-06-27T11:48:22.970Z,45.90
2019-06-27T11:49:22.898Z,45.11
2019-06-27T11:50:22.904Z,44.92
2019-06-27T11:51:22.874Z,46.70
2019-06-27T11:52:26.164Z,47.50
2019-06-27T11:53:22.854Z,45.90
2019-06-27T11:54:22.849Z,46.60
2019-06-27T11:55:22.887Z,45.71
2019-06-27T11:56:22.948Z,45.59
2019-06-27T11:57:22.812Z,44.77
2019-06-27T11:58:22.819Z,46.88
2019-06-27T11:59:22.849Z,48.65
2019-06-27T12:00:22.788Z,44.87
2019-06-27T12:01:22.794Z,46.08
2019-06-27T12:02:22.781Z,46.48
2019-06-27T12:03:22.846Z,45.98
2019-06-27T12:04:22.739Z,47.38
2019-06-27T12:05:22.726Z,47.77
2019-06-27T12:06:22.717Z,49.16
2019-06-27T12:07:22.720Z,47.95
2019-06-27T12:08:22.737Z,47.05
2019-06-27T12:09:22.694Z,47.35
2019-06-27T12:10:22.673Z,47.85
2019-06-27T12:11:22.667Z,45.96
2019-06-27T12:12:22.651Z,47.03
2019-06-27T12:13:22.688Z,45.17
2019-06-27T12:14:22.627Z,47.35
2019-06-27T12:15:22.615Z,47.13
2019-06-27T12:16:22.603Z,48.02
2019-06-27T12:17:22.594Z,46.24
2019-06-27T12:18:22.588Z,44.65
2019-06-27T12:19:22.649Z,48.10
2019-06-27T12:20:22.558Z,45.03
2019-06-27T12:21:22.567Z,44.53
2019-06-27T12:22:22.540Z,45.92
2019-06-27T12:23:22.528Z,46.22
2019-06-27T12:24:22.519Z,49.09
2019-06-27T12:25:22.537Z,47.41
2019-06-27T12:26:22.511Z,47.11
2019-06-27T12:27:22.487Z,47.41
2019-06-27T12:28:22.474Z,45.54
2019-06-27T12:29:22.474Z,44.55
2019-06-27T12:30:22.468Z,45.86
2019-06-27T12:31:22.457Z,45.54
2019-06-27T12:32:22.431Z,44.87
2019-06-27T12:33:22.419Z,46.26
2019-06-27T12:34:22.411Z,49.74
2019-06-27T12:35:22.410Z,47.85
2019-06-27T12:36:22.415Z,49.02
2019-06-27T12:37:22.379Z,49.99
2019-06-27T12:38:22.379Z,48.00
2019-06-27T12:39:22.362Z,45.62
2019-06-27T12:40:22.361Z,44.87
2019-06-27T12:41:22.343Z,45.67
2019-06-27T12:42:32.059Z,47.85
2019-06-27T12:43:23.311Z,49.44
2019-06-27T12:44:22.312Z,49.54
2019-06-27T12:45:22.293Z,47.35
2019-06-27T12:46:22.290Z,47.53
2019-06-27T12:47:22.267Z,45.64
2019-06-27T12:48:22.272Z,45.79
2019-06-27T12:49:22.245Z,46.90
2019-06-27T12:50:22.251Z,49.98
2019-06-27T12:51:22.227Z,49.38
2019-06-27T12:52:22.213Z,49.38
2019-06-27T12:53:22.203Z,49.16